sensor_id;sensor_type;location;lat;lon;timestamp;pressure;altitude;pressure_sealevel;temperature;humidity
25130;BME280;13308;50.860;13.664;2023-02-13T06:57:25;98814.47;;;4.01;100.00
25130;BME280;13308;50.860;13.664;2023-02-13T06:59:51;98818.47;;;4.04;100.00
25130;BME280;13308;50.860;13.664;2023-02-13T07:02:16;98823.28;;;4.07;100.00
25130;BME280;13308;50.860;13.664;2023-02-13T07:04:41;98821.69;;;4.06;100.00
25130;BME280;13308;50.860;13.664;2023-02-13T07:07:07;98814.78;;;4.08;100.00
25130;BME280;13308;50.860;13.664;2023-02-13T07:09:32;98818.44;;;4.12;100.00
25130;BME280;13308;50.860;13.664;2023-02-13T07:11:58;98808.66;;;4.11;100.00
25130;BME280;13308;50.860;13.664;2023-02-13T07:14:26;98817.47;;;4.17;100.00
25130;BME280;13308;50.860;13.664;2023-02-13T07:16:51;98818.25;;;4.17;100.00
25130;BME280;13308;50.860;13.664;2023-02-13T07:19:16;98819.53;;;4.20;100.00
25130;BME280;13308;50.860;13.664;2023-02-13T07:21:42;98813.13;;;4.16;100.00
25130;BME280;13308;50.860;13.664;2023-02-13T07:24:07;98821.63;;;4.23;100.00
25130;BME280;13308;50.860;13.664;2023-02-13T07:26:32;98816.81;;;4.20;100.00
25130;BME280;13308;50.860;13.664;2023-02-13T07:28:57;98825.66;;;4.17;100.00
25130;BME280;13308;50.860;13.664;2023-02-13T07:31:23;98830.00;;;4.18;100.00
25130;BME280;13308;50.860;13.664;2023-02-13T07:33:48;98820.31;;;4.29;100.00
25130;BME280;13308;50.860;13.664;2023-02-13T07:36:14;98824.16;;;4.28;100.00
25130;BME280;13308;50.860;13.664;2023-02-13T07:38:39;98818.41;;;4.21;100.00
25130;BME280;13308;50.860;13.664;2023-02-13T07:41:04;98818.41;;;4.21;100.00
25130;BME280;13308;50.860;13.664;2023-02-13T07:43:30;98823.72;;;4.17;100.00
25130;BME280;13308;50.860;13.664;2023-02-13T07:46:00;98825.28;;;4.27;100.00
25130;BME280;13308;50.860;13.664;2023-02-13T07:48:26;98830.84;;;4.39;100.00
25130;BME280;13308;50.860;13.664;2023-02-13T07:50:52;98826.56;;;4.29;100.00
25130;BME280;13308;50.860;13.664;2023-02-13T07:53:18;98819.00;;;4.35;100.00
25130;BME280;13308;50.860;13.664;2023-02-13T07:55:43;98817.88;;;4.36;100.00
25130;BME280;13308;50.860;13.664;2023-02-13T07:58:08;98819.00;;;4.35;100.00
25130;BME280;13308;50.860;13.664;2023-02-13T08:00:34;98812.06;;;4.37;100.00
25130;BME280;13308;50.860;13.664;2023-02-13T08:03:00;98811.28;;;4.37;100.00
25130;BME280;13308;50.860;13.664;2023-02-13T08:05:26;98813.28;;;4.48;100.00
25130;BME280;13308;50.860;13.664;2023-02-13T08:07:51;98818.38;;;4.58;100.00
25130;BME280;13308;50.860;13.664;2023-02-13T08:10:18;98823.47;;;4.68;100.00
25130;BME280;13308;50.860;13.664;2023-02-13T08:13:03;98828.13;;;4.68;100.00
25130;BME280;13308;50.860;13.664;2023-02-13T08:15:28;98818.78;;;4.69;100.00
25130;BME280;13308;50.860;13.664;2023-02-13T08:17:53;98811.59;;;4.64;100.00
25130;BME280;13308;50.860;13.664;2023-02-13T08:20:19;98815.72;;;4.70;100.00
25130;BME280;13308;50.860;13.664;2023-02-13T08:22:44;98819.44;;;4.95;100.00
25130;BME280;13308;50.860;13.664;2023-02-13T08:25:09;98817.88;;;5.06;100.00
25130;BME280;13308;50.860;13.664;2023-02-13T08:27:35;98824.03;;;5.03;100.00
25130;BME280;13308;50.860;13.664;2023-02-13T08:30:00;98814.28;;;4.93;100.00
25130;BME280;13308;50.860;13.664;2023-02-13T08:32:28;98823.63;;;4.92;100.00
25130;BME280;13308;50.860;13.664;2023-02-13T08:34:53;98826.69;;;4.91;100.00
25130;BME280;13308;50.860;13.664;2023-02-13T08:37:18;98835.97;;;4.98;100.00
25130;BME280;13308;50.860;13.664;2023-02-13T08:39:44;98831.78;;;5.01;100.00
25130;BME280;13308;50.860;13.664;2023-02-13T08:42:09;98828.69;;;5.02;100.00
25130;BME280;13308;50.860;13.664;2023-02-13T08:44:34;98832.16;;;5.11;100.00
25130;BME280;13308;50.860;13.664;2023-02-13T08:47:00;98842.03;;;5.04;100.00
25130;BME280;13308;50.860;13.664;2023-02-13T08:49:28;98839.09;;;5.09;100.00
25130;BME280;13308;50.860;13.664;2023-02-13T08:51:54;98839.97;;;5.21;100.00
25130;BME280;13308;50.860;13.664;2023-02-13T08:54:19;98844.84;;;5.16;100.00
25130;BME280;13308;50.860;13.664;2023-02-13T08:56:44;98837.31;;;5.13;100.00
25130;BME280;13308;50.860;13.664;2023-02-13T08:59:10;98833.44;;;5.14;100.00
25130;BME280;13308;50.860;13.664;2023-02-13T09:01:35;98838.44;;;5.12;100.00
25130;BME280;13308;50.860;13.664;2023-02-13T09:04:00;98837.50;;;5.08;100.00
25130;BME280;13308;50.860;13.664;2023-02-13T09:06:26;98840.97;;;5.17;100.00
25130;BME280;13308;50.860;13.664;2023-02-13T09:08:52;98842.84;;;5.04;100.00
25130;BME280;13308;50.860;13.664;2023-02-13T09:11:18;98838.28;;;5.08;100.00
25130;BME280;13308;50.860;13.664;2023-02-13T09:13:46;98835.50;;;5.17;100.00
25130;BME280;13308;50.860;13.664;2023-02-13T09:16:12;98839.16;;;5.21;100.00
25130;BME280;13308;50.860;13.664;2023-02-13T09:18:37;98837.13;;;5.18;100.00
25130;BME280;13308;50.860;13.664;2023-02-13T09:21:08;98836.22;;;5.26;100.00
25130;BME280;13308;50.860;13.664;2023-02-13T09:23:36;98848.97;;;5.22;100.00
25130;BME280;13308;50.860;13.664;2023-02-13T09:26:04;98855.00;;;5.36;100.00
25130;BME280;13308;50.860;13.664;2023-02-13T09:28:31;98850.31;;;5.36;100.00
25130;BME280;13308;50.860;13.664;2023-02-13T09:30:57;98843.38;;;5.39;100.00
25130;BME280;13308;50.860;13.664;2023-02-13T09:33:23;98850.44;;;5.40;100.00
25130;BME280;13308;50.860;13.664;2023-02-13T09:35:49;98856.16;;;5.47;100.00
25130;BME280;13308;50.860;13.664;2023-02-13T09:38:14;98853.91;;;5.49;100.00
25130;BME280;13308;50.860;13.664;2023-02-13T09:40:50;98852.97;;;5.45;100.00
25130;BME280;13308;50.860;13.664;2023-02-13T09:43:29;98853.72;;;5.54;100.00
25130;BME280;13308;50.860;13.664;2023-02-13T09:45:59;98845.34;;;5.50;100.00
25130;BME280;13308;50.860;13.664;2023-02-13T09:48:33;98853.84;;;5.57;100.00
25130;BME280;13308;50.860;13.664;2023-02-13T09:51:00;98846.06;;;5.59;100.00
25130;BME280;13308;50.860;13.664;2023-02-13T09:53:27;98855.63;;;5.53;100.00
25130;BME280;13308;50.860;13.664;2023-02-13T09:56:35;98860.09;;;5.58;100.00
25130;BME280;13308;50.860;13.664;2023-02-13T09:59:07;98857.56;;;5.53;100.00
25130;BME280;13308;50.860;13.664;2023-02-13T10:01:40;98862.56;;;5.51;100.00
25130;BME280;13308;50.860;13.664;2023-02-13T10:04:20;98854.81;;;5.53;100.00
25130;BME280;13308;50.860;13.664;2023-02-13T10:07:20;98861.91;;;5.54;100.00
25130;BME280;13308;50.860;13.664;2023-02-13T10:09:54;98858.25;;;5.50;100.00
25130;BME280;13308;50.860;13.664;2023-02-13T10:17:49;98869.19;;;5.50;100.00
25130;BME280;13308;50.860;13.664;2023-02-13T10:20:38;98865.75;;;5.53;100.00
25130;BME280;13308;50.860;13.664;2023-02-13T10:23:30;98856.91;;;5.56;100.00
25130;BME280;13308;50.860;13.664;2023-02-13T10:26:01;98857.91;;;5.51;100.00
25130;BME280;13308;50.860;13.664;2023-02-13T10:28:29;98863.25;;;5.48;100.00
25130;BME280;13308;50.860;13.664;2023-02-13T10:31:01;98854.03;;;5.52;100.00
25130;BME280;13308;50.860;13.664;2023-02-13T10:33:33;98860.41;;;5.56;100.00
25130;BME280;13308;50.860;13.664;2023-02-13T10:36:04;98857.34;;;5.58;100.00
25130;BME280;13308;50.860;13.664;2023-02-13T10:38:33;98854.75;;;5.61;100.00
25130;BME280;13308;50.860;13.664;2023-02-13T10:41:14;98845.06;;;5.64;100.00
25130;BME280;13308;50.860;13.664;2023-02-13T10:44:04;98846.78;;;5.68;100.00
25130;BME280;13308;50.860;13.664;2023-02-13T10:49:17;98845.59;;;5.78;100.00
25130;BME280;13308;50.860;13.664;2023-02-13T10:51:59;98834.16;;;5.76;100.00
25130;BME280;13308;50.860;13.664;2023-02-13T10:54:53;98838.22;;;5.70;100.00
25130;BME280;13308;50.860;13.664;2023-02-13T10:58:21;98837.56;;;5.73;100.00
25130;BME280;13308;50.860;13.664;2023-02-13T11:00:34;98837.56;;;5.73;100.00
25130;BME280;13308;50.860;13.664;2023-02-13T11:03:00;98832.38;;;5.80;100.00
25130;BME280;13308;50.860;13.664;2023-02-13T11:05:31;98831.69;;;5.83;100.00
25130;BME280;13308;50.860;13.664;2023-02-13T11:07:58;98835.03;;;5.88;100.00
25130;BME280;13308;50.860;13.664;2023-02-13T11:10:25;98831.16;;;5.89;100.00
25130;BME280;13308;50.860;13.664;2023-02-13T11:12:52;98830.25;;;5.97;100.00
25130;BME280;13308;50.860;13.664;2023-02-13T11:15:31;98823.38;;;5.91;100.00
25130;BME280;13308;50.860;13.664;2023-02-13T11:18:01;98823.16;;;5.96;100.00
25130;BME280;13308;50.860;13.664;2023-02-13T11:28:52;98810.75;;;5.99;100.00
25130;BME280;13308;50.860;13.664;2023-02-13T11:31:27;98811.75;;;5.94;100.00
25130;BME280;13308;50.860;13.664;2023-02-13T11:33:53;98816.66;;;6.01;100.00
25130;BME280;13308;50.860;13.664;2023-02-13T11:39:00;98814.22;;;6.20;100.00
25130;BME280;13308;50.860;13.664;2023-02-13T11:41:27;98810.00;;;6.34;100.00
25130;BME280;13308;50.860;13.664;2023-02-13T11:43:55;98807.38;;;6.50;100.00
25130;BME280;13308;50.860;13.664;2023-02-13T11:46:27;98808.97;;;6.51;100.00
25130;BME280;13308;50.860;13.664;2023-02-13T11:49:02;98808.75;;;6.56;100.00
25130;BME280;13308;50.860;13.664;2023-02-13T11:51:37;98799.91;;;6.62;100.00
25130;BME280;13308;50.860;13.664;2023-02-13T11:54:04;98789.53;;;6.56;100.00
25130;BME280;13308;50.860;13.664;2023-02-13T11:56:46;98790.09;;;6.61;100.00
25130;BME280;13308;50.860;13.664;2023-02-13T11:59:12;98784.06;;;6.56;100.00
25130;BME280;13308;50.860;13.664;2023-02-13T12:01:37;98788.16;;;6.62;100.00
25130;BME280;13308;50.860;13.664;2023-02-13T12:04:17;98782.09;;;6.68;100.00
25130;BME280;13308;50.860;13.664;2023-02-13T12:07:01;98786.34;;;6.54;100.00
25130;BME280;13308;50.860;13.664;2023-02-13T12:09:27;98777.00;;;6.55;100.00
25130;BME280;13308;50.860;13.664;2023-02-13T12:11:56;98776.50;;;6.53;100.00
25130;BME280;13308;50.860;13.664;2023-02-13T12:14:32;98774.69;;;6.57;100.00
25130;BME280;13308;50.860;13.664;2023-02-13T12:17:10;98780.16;;;6.69;100.00
25130;BME280;13308;50.860;13.664;2023-02-13T12:19:40;98776.47;;;6.77;100.00
25130;BME280;13308;50.860;13.664;2023-02-13T12:22:21;98777.41;;;6.69;100.00
25130;BME280;13308;50.860;13.664;2023-02-13T12:25:13;98772.72;;;6.69;100.00
25130;BME280;13308;50.860;13.664;2023-02-13T12:27:55;98783.31;;;6.83;100.00
25130;BME280;13308;50.860;13.664;2023-02-13T12:36:18;98765.81;;;6.87;100.00
25130;BME280;13308;50.860;13.664;2023-02-13T12:44:24;98761.63;;;6.66;100.00
25130;BME280;13308;50.860;13.664;2023-02-13T12:47:04;98750.91;;;6.73;100.00
25130;BME280;13308;50.860;13.664;2023-02-13T12:55:29;98754.91;;;6.51;100.00
25130;BME280;13308;50.860;13.664;2023-02-13T12:58:38;98758.38;;;6.48;100.00
25130;BME280;13308;50.860;13.664;2023-02-13T13:01:23;98751.41;;;6.51;100.00
25130;BME280;13308;50.860;13.664;2023-02-13T13:04:01;98760.53;;;6.55;100.00
25130;BME280;13308;50.860;13.664;2023-02-13T13:06:34;98757.31;;;6.53;100.00
25130;BME280;13308;50.860;13.664;2023-02-13T13:15:04;98764.50;;;6.57;100.00
25130;BME280;13308;50.860;13.664;2023-02-13T13:17:59;98760.66;;;6.58;100.00
25130;BME280;13308;50.860;13.664;2023-02-13T13:20:37;98755.28;;;6.62;100.00
25130;BME280;13308;50.860;13.664;2023-02-13T13:23:11;98755.63;;;6.48;100.00
25130;BME280;13308;50.860;13.664;2023-02-13T13:26:08;98752.34;;;6.43;100.00
25130;BME280;13308;50.860;13.664;2023-02-13T13:28:41;98747.94;;;6.54;100.00
25130;BME280;13308;50.860;13.664;2023-02-13T13:31:08;98750.03;;;6.57;100.00
25130;BME280;13308;50.860;13.664;2023-02-13T13:33:34;98743.75;;;6.44;100.00
25130;BME280;13308;50.860;13.664;2023-02-13T13:36:11;98747.94;;;6.54;100.00
25130;BME280;13308;50.860;13.664;2023-02-13T13:38:51;98738.59;;;6.55;100.00
25130;BME280;13308;50.860;13.664;2023-02-13T13:41:25;98739.50;;;6.59;100.00
25130;BME280;13308;50.860;13.664;2023-02-13T13:52:28;98741.53;;;6.74;100.00
25130;BME280;13308;50.860;13.664;2023-02-13T13:54:55;98740.63;;;6.70;100.00
25130;BME280;13308;50.860;13.664;2023-02-13T14:02:43;98744.56;;;9.13;100.00
25130;BME280;13308;50.860;13.664;2023-02-13T14:07:39;98756.88;;;9.98;95.62
25130;BME280;13308;50.860;13.664;2023-02-13T14:13:05;98751.47;;;9.41;92.90
25130;BME280;13308;50.860;13.664;2023-02-13T14:18:05;98746.13;;;8.11;97.97
25130;BME280;13308;50.860;13.664;2023-02-13T14:23:29;98748.34;;;7.47;100.00
25130;BME280;13308;50.860;13.664;2023-02-13T14:31:33;98744.66;;;7.00;100.00
25130;BME280;13308;50.860;13.664;2023-02-13T14:34:05;98737.38;;;6.92;100.00
25130;BME280;13308;50.860;13.664;2023-02-13T14:36:40;98737.81;;;6.94;100.00
25130;BME280;13308;50.860;13.664;2023-02-13T14:39:18;98747.34;;;6.84;100.00
25130;BME280;13308;50.860;13.664;2023-02-13T14:47:03;98729.97;;;6.80;100.00
25130;BME280;13308;50.860;13.664;2023-02-13T14:49:33;98725.13;;;6.62;100.00
25130;BME280;13308;50.860;13.664;2023-02-13T14:52:15;98725.13;;;6.62;100.00
25130;BME280;13308;50.860;13.664;2023-02-13T14:54:48;98718.28;;;6.56;100.00
25130;BME280;13308;50.860;13.664;2023-02-13T14:57:18;98722.63;;;6.45;100.00
25130;BME280;13308;50.860;13.664;2023-02-13T14:59:49;98725.81;;;6.47;100.00
25130;BME280;13308;50.860;13.664;2023-02-13T15:04:53;98709.38;;;6.35;100.00
25130;BME280;13308;50.860;13.664;2023-02-13T15:07:22;98707.81;;;6.22;100.00
25130;BME280;13308;50.860;13.664;2023-02-13T15:09:59;98704.13;;;6.30;100.00
25130;BME280;13308;50.860;13.664;2023-02-13T15:14:52;98704.13;;;6.30;100.00
25130;BME280;13308;50.860;13.664;2023-02-13T15:17:21;98691.78;;;6.36;100.00
25130;BME280;13308;50.860;13.664;2023-02-13T15:19:50;98693.41;;;6.49;100.00
25130;BME280;13308;50.860;13.664;2023-02-13T15:22:33;98693.53;;;6.40;100.00
25130;BME280;13308;50.860;13.664;2023-02-13T15:24:59;98670.78;;;6.40;100.00
25130;BME280;13308;50.860;13.664;2023-02-13T15:27:30;98681.06;;;6.43;100.00
25130;BME280;13308;50.860;13.664;2023-02-13T15:30:26;98674.44;;;6.44;100.00
25130;BME280;13308;50.860;13.664;2023-02-13T15:32:55;98676.59;;;6.38;100.00
25130;BME280;13308;50.860;13.664;2023-02-13T15:35:25;98682.09;;;6.38;100.00
25130;BME280;13308;50.860;13.664;2023-02-13T15:37:51;98674.47;;;6.32;100.00
25130;BME280;13308;50.860;13.664;2023-02-13T15:40:31;98674.81;;;6.30;100.00
25130;BME280;13308;50.860;13.664;2023-02-13T15:43:02;98684.41;;;6.24;100.00
25130;BME280;13308;50.860;13.664;2023-02-13T15:45:28;98677.91;;;6.17;100.00
25130;BME280;13308;50.860;13.664;2023-02-13T15:47:55;98678.50;;;6.10;100.00
25130;BME280;13308;50.860;13.664;2023-02-13T15:50:30;98685.56;;;5.99;100.00
25130;BME280;13308;50.860;13.664;2023-02-13T15:52:58;98671.75;;;5.84;100.00
25130;BME280;13308;50.860;13.664;2023-02-13T15:55:27;98678.34;;;5.83;100.00
25130;BME280;13308;50.860;13.664;2023-02-13T15:57:55;98682.69;;;5.72;100.00
25130;BME280;13308;50.860;13.664;2023-02-13T16:00:30;98675.34;;;5.64;100.00
25130;BME280;13308;50.860;13.664;2023-02-13T16:02:57;98671.47;;;5.53;100.00
25130;BME280;13308;50.860;13.664;2023-02-13T16:05:24;98678.06;;;5.52;100.00
25130;BME280;13308;50.860;13.664;2023-02-13T16:10:25;98673.16;;;5.33;100.00
25130;BME280;13308;50.860;13.664;2023-02-13T16:12:52;98684.97;;;5.25;100.00
25130;BME280;13308;50.860;13.664;2023-02-13T16:15:19;98692.16;;;5.18;100.00
25130;BME280;13308;50.860;13.664;2023-02-13T16:17:46;98696.91;;;5.09;100.00
25130;BME280;13308;50.860;13.664;2023-02-13T16:27:41;98695.22;;;4.84;100.00
25130;BME280;13308;50.860;13.664;2023-02-13T16:32:42;98704.94;;;4.73;100.00
25130;BME280;13308;50.860;13.664;2023-02-13T16:37:49;98719.19;;;4.58;100.00
25130;BME280;13308;50.860;13.664;2023-02-13T16:40:31;98715.06;;;4.52;100.00
25130;BME280;13308;50.860;13.664;2023-02-13T16:43:52;98708.56;;;4.44;100.00
25130;BME280;13308;50.860;13.664;2023-02-13T16:46:55;98705.69;;;4.41;100.00
25130;BME280;13308;50.860;13.664;2023-02-13T16:51:44;98698.00;;;4.34;100.00
25130;BME280;13308;50.860;13.664;2023-02-13T16:56:52;98707.06;;;4.26;100.00
25130;BME280;13308;50.860;13.664;2023-02-13T16:59:35;98716.53;;;4.29;100.00
25130;BME280;13308;50.860;13.664;2023-02-13T17:02:20;98716.53;;;4.29;100.00
25130;BME280;13308;50.860;13.664;2023-02-13T17:04:52;98719.59;;;4.27;100.00
25130;BME280;13308;50.860;13.664;2023-02-13T17:09:51;98714.00;;;4.24;100.00
25130;BME280;13308;50.860;13.664;2023-02-13T17:12:17;98702.31;;;4.15;100.00
25130;BME280;13308;50.860;13.664;2023-02-13T17:14:43;98702.50;;;4.10;100.00
25130;BME280;13308;50.860;13.664;2023-02-13T17:17:18;98698.34;;;4.04;100.00
25130;BME280;13308;50.860;13.664;2023-02-13T17:19:44;98697.72;;;4.07;100.00
25130;BME280;13308;50.860;13.664;2023-02-13T17:22:34;98695.63;;;4.04;100.00
25130;BME280;13308;50.860;13.664;2023-02-13T17:25:02;98687.97;;;3.97;100.00
25130;BME280;13308;50.860;13.664;2023-02-13T17:27:28;98683.44;;;4.01;100.00
25130;BME280;13308;50.860;13.664;2023-02-13T17:29:53;98678.78;;;4.02;100.00
25130;BME280;13308;50.860;13.664;2023-02-13T17:32:21;98679.28;;;3.95;100.00
25130;BME280;13308;50.860;13.664;2023-02-13T17:34:47;98683.97;;;3.95;100.00
25130;BME280;13308;50.860;13.664;2023-02-13T17:37:19;98678.50;;;3.95;100.00
25130;BME280;13308;50.860;13.664;2023-02-13T17:39:46;98673.03;;;3.95;100.00
25130;BME280;13308;50.860;13.664;2023-02-13T17:42:16;98677.19;;;4.01;100.00
25130;BME280;13308;50.860;13.664;2023-02-13T17:44:42;98678.19;;;3.96;100.00
25130;BME280;13308;50.860;13.664;2023-02-13T17:47:07;98681.69;;;3.97;100.00
25130;BME280;13308;50.860;13.664;2023-02-13T17:49:33;98676.22;;;3.97;100.00
25130;BME280;13308;50.860;13.664;2023-02-13T17:51:58;98678.19;;;3.96;100.00
25130;BME280;13308;50.860;13.664;2023-02-13T17:54:23;98686.22;;;3.93;100.00
25130;BME280;13308;50.860;13.664;2023-02-13T17:56:49;98674.63;;;3.96;100.00
25130;BME280;13308;50.860;13.664;2023-02-13T17:59:14;98673.56;;;3.88;100.00
25130;BME280;13308;50.860;13.664;2023-02-13T18:01:40;98675.97;;;3.90;100.00
25130;BME280;13308;50.860;13.664;2023-02-13T18:04:05;98689.59;;;3.90;100.00
25130;BME280;13308;50.860;13.664;2023-02-13T18:06:30;98691.69;;;3.93;100.00
25130;BME280;13308;50.860;13.664;2023-02-13T18:08:55;98702.25;;;3.94;100.00
25130;BME280;13308;50.860;13.664;2023-02-13T18:11:21;98703.53;;;3.97;100.00
25130;BME280;13308;50.860;13.664;2023-02-13T18:13:46;98700.47;;;3.98;100.00
25130;BME280;13308;50.860;13.664;2023-02-13T18:16:13;98689.56;;;3.98;100.00
25130;BME280;13308;50.860;13.664;2023-02-13T18:18:38;98692.63;;;3.97;100.00
25130;BME280;13308;50.860;13.664;2023-02-13T18:21:04;98696.47;;;3.96;100.00
25130;BME280;13308;50.860;13.664;2023-02-13T18:23:29;98688.75;;;3.98;100.00
25130;BME280;13308;50.860;13.664;2023-02-13T18:26:05;98679.47;;;3.99;100.00
25130;BME280;13308;50.860;13.664;2023-02-13T18:28:31;98685.28;;;3.89;100.00
25130;BME280;13308;50.860;13.664;2023-02-13T18:30:56;98696.78;;;3.94;100.00
25130;BME280;13308;50.860;13.664;2023-02-13T18:33:21;98691.03;;;3.96;100.00
25130;BME280;13308;50.860;13.664;2023-02-13T18:35:47;98692.78;;;3.92;100.00
25130;BME280;13308;50.860;13.664;2023-02-13T18:38:12;98709.66;;;3.94;100.00
25130;BME280;13308;50.860;13.664;2023-02-13T18:40:39;98706.13;;;3.93;100.00
25130;BME280;13308;50.860;13.664;2023-02-13T18:43:04;98700.97;;;3.92;100.00
25130;BME280;13308;50.860;13.664;2023-02-13T18:45:30;98697.94;;;3.93;100.00
25130;BME280;13308;50.860;13.664;2023-02-13T18:47:55;98705.81;;;3.95;100.00
25130;BME280;13308;50.860;13.664;2023-02-13T18:50:21;98697.94;;;3.93;100.00
25130;BME280;13308;50.860;13.664;2023-02-13T18:52:47;98701.47;;;3.94;100.00
25130;BME280;13308;50.860;13.664;2023-02-13T18:55:12;98705.81;;;3.95;100.00
25130;BME280;13308;50.860;13.664;2023-02-13T18:57:38;98703.53;;;3.97;100.00
25130;BME280;13308;50.860;13.664;2023-02-13T19:00:08;98700.53;;;3.90;100.00
25130;BME280;13308;50.860;13.664;2023-02-13T19:02:33;98700.84;;;3.88;100.00
25130;BME280;13308;50.860;13.664;2023-02-13T19:04:59;98687.06;;;4.14;100.00
25130;BME280;13308;50.860;13.664;2023-02-13T19:07:25;98696.94;;;3.98;100.00
25130;BME280;13308;50.860;13.664;2023-02-13T19:09:51;98691.34;;;3.94;100.00
25130;BME280;13308;50.860;13.664;2023-02-13T19:12:16;98691.16;;;3.99;100.00
25130;BME280;13308;50.860;13.664;2023-02-13T19:14:41;98678.50;;;3.95;100.00
25130;BME280;13308;50.860;13.664;2023-02-13T19:17:08;98678.22;;;3.88;100.00
25130;BME280;13308;50.860;13.664;2023-02-13T19:19:34;98678.50;;;3.95;100.00
25130;BME280;13308;50.860;13.664;2023-02-13T19:22:00;98679.06;;;3.80;100.00
25130;BME280;13308;50.860;13.664;2023-02-13T19:24:25;98673.13;;;3.78;100.00
25130;BME280;13308;50.860;13.664;2023-02-13T19:26:50;98678.59;;;3.78;100.00
25130;BME280;13308;50.860;13.664;2023-02-13T19:29:16;98678.22;;;3.88;100.00
